sensor_id;sensor_type;location;lat;lon;timestamp;P1;durP1;ratioP1;P2;durP2;ratioP2
64375;SDS011;50700;55.416;12.952;2022-12-18T00:01:16;6.95;;;4.30;;
64375;SDS011;50700;55.416;12.952;2022-12-18T00:03:43;8.25;;;3.78;;
64375;SDS011;50700;55.416;12.952;2022-12-18T00:06:09;9.13;;;4.50;;
64375;SDS011;50700;55.416;12.952;2022-12-18T00:08:35;8.65;;;3.78;;
64375;SDS011;50700;55.416;12.952;2022-12-18T00:11:08;9.48;;;4.22;;
64375;SDS011;50700;55.416;12.952;2022-12-18T00:13:35;7.13;;;4.13;;
64375;SDS011;50700;55.416;12.952;2022-12-18T00:16:01;11.35;;;5.05;;
64375;SDS011;50700;55.416;12.952;2022-12-18T00:18:28;10.55;;;4.38;;
64375;SDS011;50700;55.416;12.952;2022-12-18T00:20:58;13.73;;;5.22;;
64375;SDS011;50700;55.416;12.952;2022-12-18T00:23:25;7.97;;;3.72;;
64375;SDS011;50700;55.416;12.952;2022-12-18T00:25:51;8.23;;;4.10;;
64375;SDS011;50700;55.416;12.952;2022-12-18T00:28:17;9.07;;;3.63;;
64375;SDS011;50700;55.416;12.952;2022-12-18T00:30:43;8.32;;;4.45;;
64375;SDS011;50700;55.416;12.952;2022-12-18T00:33:10;12.23;;;4.43;;
64375;SDS011;50700;55.416;12.952;2022-12-18T00:35:36;9.27;;;4.45;;
64375;SDS011;50700;55.416;12.952;2022-12-18T00:38:02;7.72;;;3.70;;
64375;SDS011;50700;55.416;12.952;2022-12-18T00:40:28;6.78;;;4.53;;
64375;SDS011;50700;55.416;12.952;2022-12-18T00:42:55;9.77;;;4.35;;
64375;SDS011;50700;55.416;12.952;2022-12-18T00:45:22;9.23;;;4.70;;
64375;SDS011;50700;55.416;12.952;2022-12-18T00:47:48;7.03;;;3.97;;
64375;SDS011;50700;55.416;12.952;2022-12-18T00:50:14;8.77;;;5.20;;
64375;SDS011;50700;55.416;12.952;2022-12-18T00:52:40;9.93;;;4.18;;
64375;SDS011;50700;55.416;12.952;2022-12-18T00:55:07;12.63;;;4.35;;
64375;SDS011;50700;55.416;12.952;2022-12-18T00:57:34;9.43;;;4.45;;
64375;SDS011;50700;55.416;12.952;2022-12-18T01:00:01;13.23;;;5.03;;
64375;SDS011;50700;55.416;12.952;2022-12-18T01:02:27;10.75;;;5.30;;
64375;SDS011;50700;55.416;12.952;2022-12-18T01:04:53;7.60;;;4.50;;
64375;SDS011;50700;55.416;12.952;2022-12-18T01:07:19;14.98;;;5.95;;
64375;SDS011;50700;55.416;12.952;2022-12-18T01:09:46;13.23;;;5.78;;
64375;SDS011;50700;55.416;12.952;2022-12-18T01:12:12;16.48;;;5.07;;
64375;SDS011;50700;55.416;12.952;2022-12-18T01:14:38;11.93;;;5.05;;
64375;SDS011;50700;55.416;12.952;2022-12-18T01:17:04;12.75;;;5.00;;
64375;SDS011;50700;55.416;12.952;2022-12-18T01:19:30;15.70;;;5.57;;
64375;SDS011;50700;55.416;12.952;2022-12-18T01:21:57;9.85;;;5.30;;
64375;SDS011;50700;55.416;12.952;2022-12-18T01:24:23;10.50;;;4.78;;
64375;SDS011;50700;55.416;12.952;2022-12-18T01:26:49;15.93;;;6.15;;
64375;SDS011;50700;55.416;12.952;2022-12-18T01:29:16;12.20;;;5.57;;
64375;SDS011;50700;55.416;12.952;2022-12-18T01:31:42;20.38;;;5.80;;
64375;SDS011;50700;55.416;12.952;2022-12-18T01:34:08;11.32;;;6.10;;
64375;SDS011;50700;55.416;12.952;2022-12-18T01:36:35;7.30;;;4.68;;
64375;SDS011;50700;55.416;12.952;2022-12-18T01:39:06;9.88;;;5.57;;
64375;SDS011;50700;55.416;12.952;2022-12-18T01:41:33;9.13;;;5.90;;
64375;SDS011;50700;55.416;12.952;2022-12-18T01:47:24;11.95;;;5.47;;
64375;SDS011;50700;55.416;12.952;2022-12-18T01:49:51;8.82;;;5.22;;
64375;SDS011;50700;55.416;12.952;2022-12-18T01:52:18;14.45;;;5.50;;
64375;SDS011;50700;55.416;12.952;2022-12-18T01:54:44;14.82;;;5.80;;
64375;SDS011;50700;55.416;12.952;2022-12-18T01:57:11;12.73;;;5.43;;
64375;SDS011;50700;55.416;12.952;2022-12-18T01:59:37;9.90;;;5.07;;
64375;SDS011;50700;55.416;12.952;2022-12-18T02:02:05;9.52;;;4.85;;
64375;SDS011;50700;55.416;12.952;2022-12-18T02:04:32;11.85;;;5.20;;
64375;SDS011;50700;55.416;12.952;2022-12-18T02:07:16;11.48;;;5.10;;
64375;SDS011;50700;55.416;12.952;2022-12-18T02:09:48;10.05;;;5.57;;
64375;SDS011;50700;55.416;12.952;2022-12-18T02:12:18;8.43;;;5.20;;
64375;SDS011;50700;55.416;12.952;2022-12-18T02:14:49;14.23;;;5.25;;
64375;SDS011;50700;55.416;12.952;2022-12-18T02:17:21;7.22;;;4.13;;
64375;SDS011;50700;55.416;12.952;2022-12-18T02:22:18;8.38;;;4.68;;
64375;SDS011;50700;55.416;12.952;2022-12-18T02:27:32;9.55;;;4.40;;
64375;SDS011;50700;55.416;12.952;2022-12-18T02:30:00;10.07;;;3.83;;
64375;SDS011;50700;55.416;12.952;2022-12-18T02:32:28;9.65;;;4.00;;
64375;SDS011;50700;55.416;12.952;2022-12-18T02:34:58;15.98;;;5.25;;
64375;SDS011;50700;55.416;12.952;2022-12-18T02:37:25;8.88;;;4.50;;
64375;SDS011;50700;55.416;12.952;2022-12-18T02:39:53;8.77;;;4.60;;
64375;SDS011;50700;55.416;12.952;2022-12-18T02:42:21;10.50;;;5.55;;
64375;SDS011;50700;55.416;12.952;2022-12-18T02:44:49;5.47;;;3.50;;
64375;SDS011;50700;55.416;12.952;2022-12-18T02:47:20;8.60;;;4.72;;
64375;SDS011;50700;55.416;12.952;2022-12-18T02:52:29;8.80;;;4.47;;
64375;SDS011;50700;55.416;12.952;2022-12-18T03:05:04;10.38;;;4.10;;
64375;SDS011;50700;55.416;12.952;2022-12-18T03:07:36;7.68;;;3.78;;
64375;SDS011;50700;55.416;12.952;2022-12-18T03:10:03;8.45;;;4.15;;
64375;SDS011;50700;55.416;12.952;2022-12-18T03:12:31;14.68;;;4.05;;
64375;SDS011;50700;55.416;12.952;2022-12-18T03:15:00;6.32;;;3.17;;
64375;SDS011;50700;55.416;12.952;2022-12-18T03:17:28;8.43;;;3.53;;
64375;SDS011;50700;55.416;12.952;2022-12-18T03:19:56;7.20;;;3.55;;
64375;SDS011;50700;55.416;12.952;2022-12-18T03:22:24;8.10;;;3.50;;
64375;SDS011;50700;55.416;12.952;2022-12-18T03:24:54;9.63;;;3.85;;
64375;SDS011;50700;55.416;12.952;2022-12-18T03:27:22;7.75;;;4.10;;
64375;SDS011;50700;55.416;12.952;2022-12-18T03:30:12;7.32;;;3.90;;
64375;SDS011;50700;55.416;12.952;2022-12-18T03:35:06;6.28;;;3.38;;
64375;SDS011;50700;55.416;12.952;2022-12-18T03:37:33;7.55;;;3.33;;
64375;SDS011;50700;55.416;12.952;2022-12-18T03:39:59;4.90;;;2.50;;
64375;SDS011;50700;55.416;12.952;2022-12-18T03:42:28;8.43;;;4.05;;
64375;SDS011;50700;55.416;12.952;2022-12-18T03:45:06;6.97;;;3.28;;
64375;SDS011;50700;55.416;12.952;2022-12-18T03:47:40;10.02;;;3.83;;
64375;SDS011;50700;55.416;12.952;2022-12-18T03:52:49;10.05;;;3.85;;
64375;SDS011;50700;55.416;12.952;2022-12-18T03:55:17;7.38;;;3.35;;
64375;SDS011;50700;55.416;12.952;2022-12-18T03:57:43;4.85;;;3.13;;
64375;SDS011;50700;55.416;12.952;2022-12-18T04:00:11;7.10;;;3.35;;
64375;SDS011;50700;55.416;12.952;2022-12-18T04:02:39;8.45;;;4.15;;
64375;SDS011;50700;55.416;12.952;2022-12-18T04:05:07;8.80;;;3.90;;
64375;SDS011;50700;55.416;12.952;2022-12-18T04:07:34;8.10;;;3.80;;
64375;SDS011;50700;55.416;12.952;2022-12-18T04:10:01;8.60;;;4.65;;
64375;SDS011;50700;55.416;12.952;2022-12-18T04:12:29;8.40;;;3.95;;
64375;SDS011;50700;55.416;12.952;2022-12-18T04:14:56;8.15;;;3.38;;
64375;SDS011;50700;55.416;12.952;2022-12-18T04:17:22;7.50;;;4.35;;
64375;SDS011;50700;55.416;12.952;2022-12-18T04:19:49;12.45;;;4.22;;
64375;SDS011;50700;55.416;12.952;2022-12-18T04:22:15;7.35;;;4.63;;
64375;SDS011;50700;55.416;12.952;2022-12-18T04:24:41;8.40;;;3.70;;
64375;SDS011;50700;55.416;12.952;2022-12-18T04:27:07;6.13;;;3.60;;
64375;SDS011;50700;55.416;12.952;2022-12-18T04:29:33;8.85;;;3.85;;
64375;SDS011;50700;55.416;12.952;2022-12-18T04:32:00;7.25;;;3.72;;
64375;SDS011;50700;55.416;12.952;2022-12-18T04:34:26;12.13;;;4.68;;
64375;SDS011;50700;55.416;12.952;2022-12-18T04:36:52;11.88;;;4.78;;
64375;SDS011;50700;55.416;12.952;2022-12-18T04:39:18;8.88;;;3.88;;
64375;SDS011;50700;55.416;12.952;2022-12-18T04:41:45;15.40;;;5.47;;
64375;SDS011;50700;55.416;12.952;2022-12-18T04:44:11;10.98;;;4.05;;
64375;SDS011;50700;55.416;12.952;2022-12-18T04:46:37;9.07;;;4.55;;
64375;SDS011;50700;55.416;12.952;2022-12-18T04:49:03;10.23;;;4.53;;
64375;SDS011;50700;55.416;12.952;2022-12-18T04:51:29;9.63;;;4.57;;
64375;SDS011;50700;55.416;12.952;2022-12-18T04:53:56;8.20;;;4.70;;
64375;SDS011;50700;55.416;12.952;2022-12-18T04:56:22;13.50;;;5.65;;
64375;SDS011;50700;55.416;12.952;2022-12-18T04:58:48;12.20;;;5.00;;
64375;SDS011;50700;55.416;12.952;2022-12-18T05:01:15;10.68;;;4.85;;
64375;SDS011;50700;55.416;12.952;2022-12-18T05:03:41;16.10;;;5.32;;
64375;SDS011;50700;55.416;12.952;2022-12-18T05:06:07;11.30;;;4.85;;
64375;SDS011;50700;55.416;12.952;2022-12-18T05:08:34;12.38;;;4.78;;
64375;SDS011;50700;55.416;12.952;2022-12-18T05:11:04;8.77;;;4.22;;
64375;SDS011;50700;55.416;12.952;2022-12-18T05:13:31;11.75;;;5.40;;
64375;SDS011;50700;55.416;12.952;2022-12-18T05:15:57;10.60;;;4.38;;
64375;SDS011;50700;55.416;12.952;2022-12-18T05:18:24;8.07;;;3.80;;
64375;SDS011;50700;55.416;12.952;2022-12-18T05:20:50;11.52;;;4.82;;
64375;SDS011;50700;55.416;12.952;2022-12-18T05:23:17;14.88;;;5.18;;
64375;SDS011;50700;55.416;12.952;2022-12-18T05:25:46;13.77;;;5.20;;
64375;SDS011;50700;55.416;12.952;2022-12-18T05:28:14;12.25;;;5.22;;
64375;SDS011;50700;55.416;12.952;2022-12-18T05:30:41;13.85;;;5.38;;
64375;SDS011;50700;55.416;12.952;2022-12-18T05:33:08;12.93;;;4.72;;
64375;SDS011;50700;55.416;12.952;2022-12-18T05:35:34;10.02;;;4.38;;
64375;SDS011;50700;55.416;12.952;2022-12-18T05:38:00;11.48;;;5.20;;
64375;SDS011;50700;55.416;12.952;2022-12-18T05:40:26;12.20;;;5.30;;
64375;SDS011;50700;55.416;12.952;2022-12-18T05:42:52;12.10;;;4.63;;
64375;SDS011;50700;55.416;12.952;2022-12-18T05:45:18;12.82;;;5.30;;
64375;SDS011;50700;55.416;12.952;2022-12-18T05:47:45;9.45;;;5.25;;
64375;SDS011;50700;55.416;12.952;2022-12-18T05:50:11;9.43;;;4.40;;
64375;SDS011;50700;55.416;12.952;2022-12-18T05:52:37;14.20;;;4.80;;
64375;SDS011;50700;55.416;12.952;2022-12-18T05:55:03;13.15;;;5.13;;
64375;SDS011;50700;55.416;12.952;2022-12-18T05:57:30;13.32;;;4.70;;
64375;SDS011;50700;55.416;12.952;2022-12-18T05:59:56;10.00;;;4.55;;
64375;SDS011;50700;55.416;12.952;2022-12-18T06:02:22;16.52;;;4.68;;
64375;SDS011;50700;55.416;12.952;2022-12-18T06:04:48;10.43;;;4.97;;
64375;SDS011;50700;55.416;12.952;2022-12-18T06:07:15;9.88;;;3.78;;
64375;SDS011;50700;55.416;12.952;2022-12-18T06:09:41;10.15;;;4.85;;
64375;SDS011;50700;55.416;12.952;2022-12-18T06:12:07;11.27;;;6.22;;
64375;SDS011;50700;55.416;12.952;2022-12-18T06:14:33;13.07;;;5.63;;
64375;SDS011;50700;55.416;12.952;2022-12-18T06:16:59;14.27;;;5.75;;
64375;SDS011;50700;55.416;12.952;2022-12-18T06:19:26;9.48;;;4.93;;
64375;SDS011;50700;55.416;12.952;2022-12-18T06:21:52;10.75;;;4.78;;
64375;SDS011;50700;55.416;12.952;2022-12-18T06:24:18;11.88;;;5.07;;
64375;SDS011;50700;55.416;12.952;2022-12-18T06:26:44;12.82;;;5.55;;
64375;SDS011;50700;55.416;12.952;2022-12-18T06:29:10;13.35;;;5.13;;
64375;SDS011;50700;55.416;12.952;2022-12-18T06:31:37;14.15;;;5.57;;
64375;SDS011;50700;55.416;12.952;2022-12-18T06:34:03;14.13;;;5.95;;
64375;SDS011;50700;55.416;12.952;2022-12-18T06:36:30;12.25;;;5.18;;
64375;SDS011;50700;55.416;12.952;2022-12-18T06:38:56;11.18;;;5.30;;
64375;SDS011;50700;55.416;12.952;2022-12-18T06:41:22;11.55;;;5.30;;
64375;SDS011;50700;55.416;12.952;2022-12-18T06:43:49;13.98;;;4.43;;
64375;SDS011;50700;55.416;12.952;2022-12-18T06:46:15;16.00;;;5.20;;
64375;SDS011;50700;55.416;12.952;2022-12-18T06:48:42;8.88;;;4.90;;
64375;SDS011;50700;55.416;12.952;2022-12-18T06:51:08;10.30;;;4.40;;
64375;SDS011;50700;55.416;12.952;2022-12-18T06:53:34;10.70;;;4.38;;
64375;SDS011;50700;55.416;12.952;2022-12-18T06:56:04;11.63;;;4.72;;
64375;SDS011;50700;55.416;12.952;2022-12-18T06:58:31;10.20;;;4.43;;
64375;SDS011;50700;55.416;12.952;2022-12-18T07:01:01;9.20;;;4.20;;
64375;SDS011;50700;55.416;12.952;2022-12-18T07:03:27;9.48;;;4.05;;
64375;SDS011;50700;55.416;12.952;2022-12-18T07:05:54;8.70;;;3.72;;
64375;SDS011;50700;55.416;12.952;2022-12-18T07:08:20;11.82;;;4.78;;
64375;SDS011;50700;55.416;12.952;2022-12-18T07:10:46;10.70;;;4.45;;
64375;SDS011;50700;55.416;12.952;2022-12-18T07:13:15;9.40;;;3.88;;
64375;SDS011;50700;55.416;12.952;2022-12-18T07:15:41;10.43;;;3.70;;
64375;SDS011;50700;55.416;12.952;2022-12-18T07:18:07;10.95;;;4.70;;
64375;SDS011;50700;55.416;12.952;2022-12-18T07:20:33;10.93;;;4.80;;
64375;SDS011;50700;55.416;12.952;2022-12-18T07:23:01;9.23;;;4.22;;
64375;SDS011;50700;55.416;12.952;2022-12-18T07:25:27;13.52;;;4.55;;
64375;SDS011;50700;55.416;12.952;2022-12-18T07:27:54;9.25;;;4.10;;
64375;SDS011;50700;55.416;12.952;2022-12-18T07:30:20;10.23;;;5.13;;
64375;SDS011;50700;55.416;12.952;2022-12-18T07:32:46;11.80;;;4.00;;
64375;SDS011;50700;55.416;12.952;2022-12-18T07:35:12;11.43;;;4.88;;
64375;SDS011;50700;55.416;12.952;2022-12-18T07:37:38;13.07;;;5.35;;
64375;SDS011;50700;55.416;12.952;2022-12-18T07:40:05;12.35;;;4.32;;
64375;SDS011;50700;55.416;12.952;2022-12-18T07:42:31;11.23;;;4.53;;
64375;SDS011;50700;55.416;12.952;2022-12-18T07:44:58;8.60;;;3.95;;
64375;SDS011;50700;55.416;12.952;2022-12-18T07:47:24;12.77;;;4.13;;
64375;SDS011;50700;55.416;12.952;2022-12-18T07:49:51;8.52;;;3.75;;
64375;SDS011;50700;55.416;12.952;2022-12-18T07:52:17;8.77;;;3.80;;
64375;SDS011;50700;55.416;12.952;2022-12-18T07:54:43;10.90;;;4.30;;
64375;SDS011;50700;55.416;12.952;2022-12-18T07:57:10;11.75;;;4.50;;
64375;SDS011;50700;55.416;12.952;2022-12-18T07:59:36;13.20;;;4.88;;
64375;SDS011;50700;55.416;12.952;2022-12-18T08:02:02;12.02;;;4.35;;
64375;SDS011;50700;55.416;12.952;2022-12-18T08:04:28;10.85;;;4.47;;
64375;SDS011;50700;55.416;12.952;2022-12-18T08:06:54;9.88;;;4.53;;
64375;SDS011;50700;55.416;12.952;2022-12-18T08:09:21;8.57;;;3.88;;
64375;SDS011;50700;55.416;12.952;2022-12-18T08:11:47;9.57;;;3.60;;
64375;SDS011;50700;55.416;12.952;2022-12-18T08:14:13;9.38;;;3.95;;
64375;SDS011;50700;55.416;12.952;2022-12-18T08:16:39;11.00;;;3.35;;
64375;SDS011;50700;55.416;12.952;2022-12-18T08:19:06;10.18;;;3.88;;
64375;SDS011;50700;55.416;12.952;2022-12-18T08:21:32;7.50;;;3.58;;
64375;SDS011;50700;55.416;12.952;2022-12-18T08:23:59;10.82;;;4.55;;
64375;SDS011;50700;55.416;12.952;2022-12-18T08:26:27;8.23;;;4.13;;
64375;SDS011;50700;55.416;12.952;2022-12-18T08:28:55;7.03;;;3.30;;
64375;SDS011;50700;55.416;12.952;2022-12-18T08:31:21;14.27;;;4.03;;
64375;SDS011;50700;55.416;12.952;2022-12-18T08:33:51;7.82;;;3.20;;
64375;SDS011;50700;55.416;12.952;2022-12-18T08:36:17;8.10;;;3.72;;
64375;SDS011;50700;55.416;12.952;2022-12-18T08:38:44;7.85;;;3.97;;
64375;SDS011;50700;55.416;12.952;2022-12-18T08:41:12;8.02;;;4.32;;
64375;SDS011;50700;55.416;12.952;2022-12-18T08:43:38;8.25;;;3.10;;
64375;SDS011;50700;55.416;12.952;2022-12-18T08:46:24;10.50;;;3.80;;
64375;SDS011;50700;55.416;12.952;2022-12-18T08:48:52;6.53;;;3.53;;
64375;SDS011;50700;55.416;12.952;2022-12-18T08:51:18;8.75;;;3.33;;
64375;SDS011;50700;55.416;12.952;2022-12-18T08:53:45;6.15;;;3.00;;
64375;SDS011;50700;55.416;12.952;2022-12-18T08:56:12;13.60;;;3.72;;
64375;SDS011;50700;55.416;12.952;2022-12-18T08:58:38;8.25;;;3.20;;
64375;SDS011;50700;55.416;12.952;2022-12-18T09:01:06;6.65;;;2.92;;
64375;SDS011;50700;55.416;12.952;2022-12-18T09:03:34;8.75;;;3.45;;
64375;SDS011;50700;55.416;12.952;2022-12-18T09:06:01;7.47;;;3.17;;
64375;SDS011;50700;55.416;12.952;2022-12-18T09:08:27;8.20;;;3.35;;
64375;SDS011;50700;55.416;12.952;2022-12-18T09:10:53;6.72;;;3.45;;
64375;SDS011;50700;55.416;12.952;2022-12-18T09:13:20;8.98;;;3.13;;
64375;SDS011;50700;55.416;12.952;2022-12-18T09:15:53;9.05;;;3.47;;
64375;SDS011;50700;55.416;12.952;2022-12-18T09:18:20;10.20;;;3.45;;
64375;SDS011;50700;55.416;12.952;2022-12-18T09:20:46;7.65;;;3.10;;
64375;SDS011;50700;55.416;12.952;2022-12-18T09:23:13;9.73;;;3.10;;
64375;SDS011;50700;55.416;12.952;2022-12-18T09:25:39;8.23;;;3.13;;
64375;SDS011;50700;55.416;12.952;2022-12-18T09:28:09;5.80;;;2.30;;
64375;SDS011;50700;55.416;12.952;2022-12-18T09:30:39;5.78;;;2.40;;
64375;SDS011;50700;55.416;12.952;2022-12-18T09:33:05;5.00;;;2.65;;
64375;SDS011;50700;55.416;12.952;2022-12-18T09:35:32;6.90;;;3.22;;
64375;SDS011;50700;55.416;12.952;2022-12-18T09:37:58;7.25;;;3.42;;
64375;SDS011;50700;55.416;12.952;2022-12-18T09:40:25;7.10;;;3.05;;
64375;SDS011;50700;55.416;12.952;2022-12-18T09:42:54;7.72;;;3.10;;
64375;SDS011;50700;55.416;12.952;2022-12-18T09:45:21;8.70;;;2.80;;
64375;SDS011;50700;55.416;12.952;2022-12-18T09:47:48;7.35;;;3.03;;
64375;SDS011;50700;55.416;12.952;2022-12-18T09:52:48;4.05;;;2.53;;
64375;SDS011;50700;55.416;12.952;2022-12-18T09:57:47;7.10;;;2.60;;
64375;SDS011;50700;55.416;12.952;2022-12-18T10:00:19;8.55;;;3.13;;
64375;SDS011;50700;55.416;12.952;2022-12-18T10:02:46;6.10;;;2.97;;
64375;SDS011;50700;55.416;12.952;2022-12-18T10:05:14;5.47;;;3.13;;
64375;SDS011;50700;55.416;12.952;2022-12-18T10:07:47;10.70;;;2.97;;
64375;SDS011;50700;55.416;12.952;2022-12-18T10:13:15;7.63;;;2.80;;
64375;SDS011;50700;55.416;12.952;2022-12-18T10:15:50;6.85;;;3.22;;
64375;SDS011;50700;55.416;12.952;2022-12-18T10:20:55;7.63;;;2.67;;
64375;SDS011;50700;55.416;12.952;2022-12-18T10:23:26;6.13;;;2.70;;
64375;SDS011;50700;55.416;12.952;2022-12-18T10:26:02;5.75;;;2.28;;
64375;SDS011;50700;55.416;12.952;2022-12-18T10:28:29;6.18;;;2.65;;
64375;SDS011;50700;55.416;12.952;2022-12-18T10:30:55;5.28;;;2.60;;
64375;SDS011;50700;55.416;12.952;2022-12-18T10:33:23;6.80;;;2.60;;
64375;SDS011;50700;55.416;12.952;2022-12-18T10:35:50;10.32;;;3.25;;
64375;SDS011;50700;55.416;12.952;2022-12-18T10:40:50;6.20;;;3.00;;
64375;SDS011;50700;55.416;12.952;2022-12-18T10:43:21;6.10;;;2.75;;
64375;SDS011;50700;55.416;12.952;2022-12-18T10:45:59;6.55;;;2.33;;
64375;SDS011;50700;55.416;12.952;2022-12-18T10:48:25;5.72;;;2.33;;
64375;SDS011;50700;55.416;12.952;2022-12-18T10:50:52;5.72;;;2.42;;
64375;SDS011;50700;55.416;12.952;2022-12-18T10:53:19;6.07;;;2.45;;
64375;SDS011;50700;55.416;12.952;2022-12-18T10:55:46;7.05;;;3.30;;
64375;SDS011;50700;55.416;12.952;2022-12-18T10:58:16;5.80;;;2.95;;
64375;SDS011;50700;55.416;12.952;2022-12-18T11:00:43;4.68;;;2.80;;
64375;SDS011;50700;55.416;12.952;2022-12-18T11:06:12;5.00;;;2.60;;
64375;SDS011;50700;55.416;12.952;2022-12-18T11:08:39;9.48;;;2.97;;
64375;SDS011;50700;55.416;12.952;2022-12-18T11:11:19;5.95;;;2.70;;
64375;SDS011;50700;55.416;12.952;2022-12-18T11:13:55;5.32;;;2.63;;
64375;SDS011;50700;55.416;12.952;2022-12-18T11:16:24;5.80;;;3.28;;
64375;SDS011;50700;55.416;12.952;2022-12-18T11:18:50;6.55;;;2.85;;
64375;SDS011;50700;55.416;12.952;2022-12-18T11:21:16;8.00;;;2.90;;
64375;SDS011;50700;55.416;12.952;2022-12-18T11:23:52;7.05;;;3.88;;
64375;SDS011;50700;55.416;12.952;2022-12-18T11:26:19;6.82;;;2.88;;
64375;SDS011;50700;55.416;12.952;2022-12-18T11:28:49;8.40;;;2.72;;
64375;SDS011;50700;55.416;12.952;2022-12-18T11:31:20;7.03;;;2.90;;
64375;SDS011;50700;55.416;12.952;2022-12-18T11:34:09;6.35;;;2.45;;
64375;SDS011;50700;55.416;12.952;2022-12-18T11:36:34;6.00;;;3.03;;
64375;SDS011;50700;55.416;12.952;2022-12-18T11:39:07;6.22;;;2.35;;
64375;SDS011;50700;55.416;12.952;2022-12-18T11:41:40;7.53;;;3.03;;
64375;SDS011;50700;55.416;12.952;2022-12-18T11:44:30;5.47;;;2.83;;
64375;SDS011;50700;55.416;12.952;2022-12-18T11:47:03;8.00;;;3.17;;
64375;SDS011;50700;55.416;12.952;2022-12-18T11:49:32;7.43;;;2.60;;
64375;SDS011;50700;55.416;12.952;2022-12-18T11:52:10;6.30;;;3.03;;
64375;SDS011;50700;55.416;12.952;2022-12-18T11:54:41;6.38;;;2.80;;
64375;SDS011;50700;55.416;12.952;2022-12-18T11:57:13;7.25;;;2.92;;
64375;SDS011;50700;55.416;12.952;2022-12-18T12:07:37;8.18;;;2.92;;
64375;SDS011;50700;55.416;12.952;2022-12-18T12:10:08;6.53;;;2.97;;
64375;SDS011;50700;55.416;12.952;2022-12-18T12:15:21;8.15;;;3.00;;
64375;SDS011;50700;55.416;12.952;2022-12-18T12:20:37;8.10;;;3.53;;
64375;SDS011;50700;55.416;12.952;2022-12-18T12:23:26;8.18;;;2.80;;
64375;SDS011;50700;55.416;12.952;2022-12-18T12:34:01;6.72;;;3.17;;
64375;SDS011;50700;55.416;12.952;2022-12-18T12:39:16;9.20;;;2.80;;
64375;SDS011;50700;55.416;12.952;2022-12-18T12:41:44;4.97;;;2.72;;
64375;SDS011;50700;55.416;12.952;2022-12-18T12:44:32;6.07;;;2.72;;
64375;SDS011;50700;55.416;12.952;2022-12-18T12:47:01;9.18;;;3.20;;
64375;SDS011;50700;55.416;12.952;2022-12-18T12:49:32;6.32;;;2.80;;
64375;SDS011;50700;55.416;12.952;2022-12-18T12:52:06;8.88;;;2.20;;
64375;SDS011;50700;55.416;12.952;2022-12-18T12:54:33;7.07;;;2.60;;
64375;SDS011;50700;55.416;12.952;2022-12-18T12:57:02;7.90;;;3.60;;
64375;SDS011;50700;55.416;12.952;2022-12-18T13:02:25;8.63;;;2.97;;
64375;SDS011;50700;55.416;12.952;2022-12-18T13:07:37;8.95;;;2.85;;
64375;SDS011;50700;55.416;12.952;2022-12-18T13:15:23;6.03;;;3.10;;
64375;SDS011;50700;55.416;12.952;2022-12-18T13:18:03;5.32;;;2.38;;
64375;SDS011;50700;55.416;12.952;2022-12-18T13:20:33;5.75;;;2.58;;
64375;SDS011;50700;55.416;12.952;2022-12-18T13:23:00;8.80;;;3.08;;
64375;SDS011;50700;55.416;12.952;2022-12-18T13:25:36;7.32;;;2.90;;
64375;SDS011;50700;55.416;12.952;2022-12-18T13:30:51;3.47;;;2.05;;
64375;SDS011;50700;55.416;12.952;2022-12-18T13:35:55;9.38;;;2.83;;
64375;SDS011;50700;55.416;12.952;2022-12-18T13:38:36;5.43;;;2.55;;
64375;SDS011;50700;55.416;12.952;2022-12-18T13:43:45;7.35;;;2.92;;
64375;SDS011;50700;55.416;12.952;2022-12-18T13:46:23;6.47;;;2.70;;
64375;SDS011;50700;55.416;12.952;2022-12-18T13:49:35;7.88;;;2.83;;
64375;SDS011;50700;55.416;12.952;2022-12-18T13:51:36;9.63;;;2.85;;
64375;SDS011;50700;55.416;12.952;2022-12-18T13:56:50;5.18;;;2.63;;
64375;SDS011;50700;55.416;12.952;2022-12-18T13:59:23;6.22;;;2.80;;
64375;SDS011;50700;55.416;12.952;2022-12-18T14:01:53;6.38;;;2.97;;
64375;SDS011;50700;55.416;12.952;2022-12-18T14:04:25;9.02;;;3.35;;
64375;SDS011;50700;55.416;12.952;2022-12-18T14:07:00;10.10;;;2.70;;
64375;SDS011;50700;55.416;12.952;2022-12-18T14:09:33;5.13;;;1.90;;
64375;SDS011;50700;55.416;12.952;2022-12-18T14:12:00;5.15;;;2.20;;
64375;SDS011;50700;55.416;12.952;2022-12-18T14:14:46;6.40;;;2.80;;
64375;SDS011;50700;55.416;12.952;2022-12-18T14:17:13;6.70;;;2.33;;
64375;SDS011;50700;55.416;12.952;2022-12-18T14:19:41;6.43;;;2.53;;
64375;SDS011;50700;55.416;12.952;2022-12-18T14:22:18;4.43;;;2.15;;
64375;SDS011;50700;55.416;12.952;2022-12-18T14:24:45;4.45;;;2.05;;
64375;SDS011;50700;55.416;12.952;2022-12-18T14:27:12;6.18;;;2.03;;
64375;SDS011;50700;55.416;12.952;2022-12-18T14:29:39;3.92;;;2.22;;
64375;SDS011;50700;55.416;12.952;2022-12-18T14:32:27;5.93;;;2.17;;
64375;SDS011;50700;55.416;12.952;2022-12-18T14:34:53;6.45;;;2.15;;
64375;SDS011;50700;55.416;12.952;2022-12-18T14:37:21;5.97;;;2.70;;
64375;SDS011;50700;55.416;12.952;2022-12-18T14:39:55;5.82;;;2.60;;
64375;SDS011;50700;55.416;12.952;2022-12-18T14:42:23;6.43;;;3.08;;
64375;SDS011;50700;55.416;12.952;2022-12-18T14:47:37;4.10;;;2.40;;
64375;SDS011;50700;55.416;12.952;2022-12-18T14:50:04;4.00;;;2.22;;
64375;SDS011;50700;55.416;12.952;2022-12-18T14:52:37;6.40;;;2.70;;
64375;SDS011;50700;55.416;12.952;2022-12-18T14:55:04;5.95;;;2.45;;
64375;SDS011;50700;55.416;12.952;2022-12-18T14:57:32;6.75;;;3.17;;
64375;SDS011;50700;55.416;12.952;2022-12-18T15:00:07;7.15;;;2.88;;
64375;SDS011;50700;55.416;12.952;2022-12-18T15:02:34;11.35;;;4.82;;
64375;SDS011;50700;55.416;12.952;2022-12-18T15:05:02;12.63;;;3.75;;
64375;SDS011;50700;55.416;12.952;2022-12-18T15:07:39;10.10;;;3.65;;
64375;SDS011;50700;55.416;12.952;2022-12-18T15:10:22;8.73;;;4.18;;
64375;SDS011;50700;55.416;12.952;2022-12-18T15:15:58;8.02;;;3.80;;
64375;SDS011;50700;55.416;12.952;2022-12-18T15:18:18;10.88;;;4.53;;
64375;SDS011;50700;55.416;12.952;2022-12-18T15:20:49;15.45;;;4.45;;
64375;SDS011;50700;55.416;12.952;2022-12-18T15:23:25;16.05;;;4.70;;
64375;SDS011;50700;55.416;12.952;2022-12-18T15:25:57;16.55;;;5.85;;
64375;SDS011;50700;55.416;12.952;2022-12-18T15:31:06;13.10;;;4.53;;
64375;SDS011;50700;55.416;12.952;2022-12-18T15:33:34;13.35;;;4.82;;
64375;SDS011;50700;55.416;12.952;2022-12-18T15:36:02;9.38;;;4.30;;
64375;SDS011;50700;55.416;12.952;2022-12-18T15:38:29;13.15;;;4.50;;
64375;SDS011;50700;55.416;12.952;2022-12-18T15:40:55;13.68;;;6.57;;
64375;SDS011;50700;55.416;12.952;2022-12-18T15:43:22;11.57;;;4.68;;
64375;SDS011;50700;55.416;12.952;2022-12-18T15:46:02;12.80;;;5.50;;
64375;SDS011;50700;55.416;12.952;2022-12-18T15:48:29;13.77;;;5.95;;
64375;SDS011;50700;55.416;12.952;2022-12-18T15:50:56;15.82;;;5.95;;
64375;SDS011;50700;55.416;12.952;2022-12-18T15:53:24;15.63;;;6.30;;
64375;SDS011;50700;55.416;12.952;2022-12-18T15:55:51;16.77;;;7.03;;
64375;SDS011;50700;55.416;12.952;2022-12-18T15:58:36;12.90;;;5.72;;
64375;SDS011;50700;55.416;12.952;2022-12-18T16:01:02;19.13;;;6.50;;
64375;SDS011;50700;55.416;12.952;2022-12-18T16:03:29;16.52;;;6.20;;
64375;SDS011;50700;55.416;12.952;2022-12-18T16:05:55;17.00;;;7.10;;
64375;SDS011;50700;55.416;12.952;2022-12-18T16:08:23;17.75;;;7.57;;
64375;SDS011;50700;55.416;12.952;2022-12-18T16:10:50;14.00;;;5.75;;
64375;SDS011;50700;55.416;12.952;2022-12-18T16:13:16;14.45;;;6.32;;